Terminal Aerodrome Forecast
Issued by NWS

Home | Current Version | Previous Version | Text Only | Print | Product List | Glossary On
Versions: 1 2 3 4 5 6 7 8 9 10 11 12 13 14 15 16 17 18 19
111
FTUS46 KSEW 271749
TAFBFI
TAF
KBFI 271749Z 2718/2818 14006KT P6SM -SHRA SCT009 OVC020
      TEMPO 2718/2720 4SM -SHRA BR BKN009 OVC020
     FM272000 17005KT P6SM -SHRA SCT010 BKN015 OVC030
     FM272300 18006KT 5SM -SHRASN BKN009 OVC015
     FM280600 18006KT P6SM OVC020=

USA.gov is the U.S. government's official web portal to all federal, state and local government web resources and services.